createdAt,value
2018-04-11T00:00:31.987Z,29.77
2018-04-11T00:03:33.266Z,30.43
2018-04-11T00:06:34.602Z,22.63
2018-04-11T00:09:35.935Z,22.33
2018-04-11T00:12:37.933Z,23.97
2018-04-11T00:15:39.168Z,22.57
2018-04-11T00:18:41.212Z,17.50
2018-04-11T00:21:42.513Z,19.43
2018-04-11T00:24:43.864Z,16.33
2018-04-11T00:27:45.110Z,19.63
2018-04-11T00:30:46.387Z,18.67
2018-04-11T00:33:47.674Z,19.90
2018-04-11T00:36:50.143Z,19.67
2018-04-11T00:39:51.692Z,20.80
2018-04-11T00:42:53.004Z,21.23
2018-04-11T00:45:55.230Z,17.53
2018-04-11T00:48:56.530Z,22.40
2018-04-11T00:51:57.826Z,19.47
2018-04-11T00:54:59.851Z,19.57
2018-04-11T00:58:01.168Z,16.67
2018-04-11T01:01:03.243Z,16.77
2018-04-11T01:04:05.274Z,18.77
2018-04-11T01:07:06.614Z,18.47
2018-04-11T01:10:07.930Z,17.00
2018-04-11T01:13:09.239Z,18.57
2018-04-11T01:16:10.556Z,22.27
2018-04-11T01:19:11.839Z,25.03
2018-04-11T01:22:13.898Z,16.43
2018-04-11T01:25:15.242Z,15.33
2018-04-11T01:28:16.513Z,18.30
2018-04-11T01:31:17.770Z,16.23
2018-04-11T01:34:19.817Z,20.27
2018-04-11T01:37:21.487Z,18.27
2018-04-11T01:40:23.186Z,23.60
2018-04-11T01:43:24.535Z,16.97
2018-04-11T01:46:26.091Z,18.60
2018-04-11T01:49:27.400Z,19.63
2018-04-11T01:52:28.688Z,15.90
2018-04-11T01:55:30.003Z,18.13
2018-04-11T01:58:31.342Z,24.17
2018-04-11T02:01:33.392Z,24.90
2018-04-11T02:04:34.738Z,21.60
2018-04-11T02:07:36.042Z,25.03
2018-04-11T02:10:37.344Z,18.23
2018-04-11T02:13:38.618Z,24.43
2018-04-11T02:16:39.858Z,25.30
2018-04-11T02:19:41.084Z,22.73
2018-04-11T02:22:42.333Z,18.40
2018-04-11T02:25:43.571Z,21.20
2018-04-11T02:28:44.822Z,18.57
2018-04-11T02:31:46.063Z,21.83
2018-04-11T02:34:48.089Z,19.20
2018-04-11T02:37:49.794Z,20.77
2018-04-11T02:40:51.118Z,22.07
2018-04-11T02:43:52.765Z,28.40
2018-04-11T02:46:54.236Z,35.80
2018-04-11T02:49:56.009Z,26.97
2018-04-11T02:52:57.282Z,27.63
2018-04-11T02:55:58.670Z,28.93
2018-04-11T02:58:59.986Z,25.83
2018-04-11T03:02:01.285Z,29.87
2018-04-11T03:05:02.589Z,24.53
2018-04-11T03:08:03.893Z,26.50
2018-04-11T03:11:05.259Z,25.10
2018-04-11T03:14:06.621Z,34.83
2018-04-11T03:17:07.899Z,36.93
2018-04-11T03:20:09.131Z,43.33
2018-04-11T03:23:11.141Z,47.07
2018-04-11T03:26:12.390Z,38.73
2018-04-11T03:29:13.652Z,42.97
2018-04-11T03:32:14.912Z,38.77
2018-04-11T03:35:16.890Z,47.67
2018-04-11T03:38:19.455Z,41.70
2018-04-11T03:41:20.921Z,39.70
2018-04-11T03:44:22.255Z,43.37
2018-04-11T03:47:23.828Z,50.17
2018-04-11T03:50:25.172Z,38.97
2018-04-11T03:53:26.497Z,40.93
2018-04-11T03:56:27.781Z,41.77
2018-04-11T03:59:29.785Z,38.83
2018-04-11T04:02:31.673Z,40.93
2018-04-11T04:05:32.990Z,36.23
2018-04-11T04:08:34.990Z,48.53
2018-04-11T04:11:36.982Z,44.27
2018-04-11T04:14:56.777Z,42.00
2018-04-11T04:18:16.599Z,39.13
2018-04-11T04:21:17.904Z,42.67
2018-04-11T04:24:19.505Z,45.13
2018-04-11T04:27:21.041Z,44.33
2018-04-11T04:30:22.581Z,44.77
2018-04-11T04:33:24.036Z,51.23
2018-04-11T04:36:25.518Z,52.40
2018-04-11T04:39:26.821Z,48.13
2018-04-11T04:42:28.076Z,38.43
2018-04-11T04:45:29.333Z,36.03
2018-04-11T04:48:30.581Z,39.13
2018-04-11T04:51:32.450Z,47.23
2018-04-11T04:54:34.147Z,40.57
2018-04-11T04:57:36.174Z,42.37
2018-04-11T05:00:37.447Z,42.07
2018-04-11T05:03:38.731Z,44.20
2018-04-11T05:06:40.015Z,39.93
2018-04-11T05:09:41.269Z,40.87
2018-04-11T05:12:42.495Z,45.47
2018-04-11T05:15:43.786Z,43.73
2018-04-11T05:18:45.063Z,50.70
2018-04-11T05:21:46.374Z,53.60
2018-04-11T05:24:48.422Z,51.57
2018-04-11T05:27:50.434Z,49.37
2018-04-11T05:30:51.756Z,60.73
2018-04-11T05:33:53.092Z,60.70
2018-04-11T05:36:54.927Z,55.30
2018-04-11T05:39:56.949Z,58.77
2018-04-11T05:42:58.261Z,69.30
2018-04-11T05:45:59.563Z,72.97
2018-04-11T05:49:00.832Z,61.97
2018-04-11T05:52:02.141Z,59.90
2018-04-11T05:55:03.393Z,65.03
2018-04-11T05:58:04.657Z,61.50
2018-04-11T06:01:05.896Z,57.53
2018-04-11T06:04:07.142Z,59.60
2018-04-11T06:07:08.385Z,70.80
2018-04-11T06:10:10.382Z,64.77
2018-04-11T06:13:11.674Z,69.10
2018-04-11T06:16:12.950Z,60.27
2018-04-11T06:19:14.207Z,66.10
2018-04-11T06:22:15.891Z,71.20
2018-04-11T06:25:18.006Z,72.33
2018-04-11T06:28:20.262Z,69.33
2018-04-11T06:31:21.805Z,67.43
2018-04-11T06:34:23.236Z,73.70
2018-04-11T06:37:25.330Z,69.40
2018-04-11T06:40:26.643Z,84.60
2018-04-11T06:43:27.951Z,83.00
2018-04-11T06:46:29.995Z,93.00
2018-04-11T06:49:31.366Z,80.37
2018-04-11T06:52:32.691Z,87.40
2018-04-11T06:55:33.980Z,88.23
2018-04-11T06:58:35.459Z,86.60
2018-04-11T07:01:36.754Z,91.17
2018-04-11T07:04:38.821Z,113.67
2018-04-11T07:07:40.106Z,100.50
2018-04-11T07:10:42.148Z,93.23
2018-04-11T07:13:43.472Z,96.27
2018-04-11T07:16:44.790Z,115.87
2018-04-11T07:19:46.095Z,90.63
2018-04-11T07:22:47.432Z,122.30
2018-04-11T07:25:49.749Z,116.70
2018-04-11T07:28:51.088Z,99.90
2018-04-11T07:31:53.165Z,113.50
2018-04-11T07:34:55.294Z,91.50
2018-04-11T07:37:56.623Z,98.73
2018-04-11T07:40:58.007Z,104.97
2018-04-11T07:43:59.313Z,92.23
2018-04-11T07:47:00.632Z,105.27
2018-04-11T07:50:01.965Z,100.13
2018-04-11T07:53:03.306Z,98.57
2018-04-11T07:56:04.639Z,123.33
2018-04-11T07:59:05.948Z,106.10
2018-04-11T08:02:07.299Z,108.80
2018-04-11T08:05:08.665Z,103.70
2018-04-11T08:08:10.031Z,113.23
2018-04-11T08:11:11.369Z,112.50
2018-04-11T08:14:12.734Z,112.67
2018-04-11T08:17:14.174Z,112.87
2018-04-11T08:20:16.263Z,115.70
2018-04-11T08:23:17.637Z,100.80
2018-04-11T08:26:18.998Z,107.27
2018-04-11T08:29:20.320Z,120.07
2018-04-11T08:32:21.632Z,108.20
2018-04-11T08:35:23.191Z,108.73
2018-04-11T08:38:24.627Z,109.93
2018-04-11T08:41:25.994Z,125.80
2018-04-11T08:44:27.363Z,122.93
2018-04-11T08:47:28.704Z,121.27
2018-04-11T08:50:30.054Z,125.90
2018-04-11T08:53:31.395Z,125.13
2018-04-11T08:56:32.708Z,126.33
2018-04-11T08:59:34.049Z,132.00
2018-04-11T09:02:35.387Z,133.70
2018-04-11T09:05:36.771Z,122.13
2018-04-11T09:08:38.096Z,144.90
2018-04-11T09:11:40.151Z,118.50
2018-04-11T09:14:41.526Z,122.57
2018-04-11T09:17:42.862Z,119.10
2018-04-11T09:20:44.237Z,112.23
2018-04-11T09:23:45.537Z,114.43
2018-04-11T09:26:47.568Z,99.57
2018-04-11T09:29:48.875Z,93.80
2018-04-11T09:32:50.242Z,101.43
2018-04-11T09:35:51.607Z,105.23
2018-04-11T09:38:52.938Z,108.23
2018-04-11T09:41:54.554Z,93.57
2018-04-11T09:44:55.832Z,98.77
2018-04-11T09:47:57.962Z,99.10
2018-04-11T09:50:59.336Z,104.07
2018-04-11T09:54:00.672Z,90.30
2018-04-11T09:57:02.006Z,86.10
2018-04-11T10:00:04.134Z,91.03
2018-04-11T10:03:05.483Z,84.70
2018-04-11T10:06:06.825Z,92.17
2018-04-11T10:09:08.166Z,75.57
2018-04-11T10:12:09.526Z,78.77
2018-04-11T10:15:10.880Z,81.73
2018-04-11T10:18:12.269Z,174.70
2018-04-11T10:21:14.389Z,78.83
2018-04-11T10:24:15.700Z,80.20
2018-04-11T10:27:17.029Z,80.50
2018-04-11T10:30:18.341Z,81.03
2018-04-11T10:33:19.657Z,89.60
2018-04-11T10:36:21.010Z,85.80
2018-04-11T10:39:22.353Z,85.30
2018-04-11T10:42:24.401Z,72.20
2018-04-11T10:45:25.709Z,67.87
2018-04-11T10:48:27.062Z,72.93
2018-04-11T10:51:29.247Z,67.23
2018-04-11T10:54:31.353Z,78.57
2018-04-11T10:57:32.669Z,57.93
2018-04-11T11:00:34.017Z,58.70
2018-04-11T11:03:35.302Z,47.93
2018-04-11T11:06:36.672Z,54.60
2018-04-11T11:09:38.780Z,47.73
2018-04-11T11:12:40.244Z,46.53
2018-04-11T11:15:41.620Z,38.70
2018-04-11T11:18:43.010Z,33.27
2018-04-11T11:21:44.336Z,42.47
2018-04-11T11:24:46.424Z,29.90
2018-04-11T11:27:48.517Z,43.03
2018-04-11T11:30:49.849Z,29.10
2018-04-11T11:33:51.183Z,30.70
2018-04-11T11:36:52.566Z,24.73
2018-04-11T11:39:53.903Z,21.53
2018-04-11T11:42:55.259Z,18.27
2018-04-11T11:46:03.600Z,28.47
2018-04-11T11:49:04.944Z,28.63
2018-04-11T11:52:06.308Z,29.47
2018-04-11T11:55:08.434Z,21.00
2018-04-11T11:58:09.799Z,21.33
2018-04-11T12:01:11.126Z,20.53
2018-04-11T12:04:12.475Z,25.47
2018-04-11T12:07:13.846Z,30.90
2018-04-11T12:10:15.212Z,24.00
2018-04-11T12:13:16.812Z,33.93
2018-04-11T12:16:18.173Z,30.23
2018-04-11T12:19:19.637Z,38.00
2018-04-11T12:22:20.975Z,37.33
2018-04-11T12:25:22.360Z,46.37
2018-04-11T12:28:23.737Z,40.83
2018-04-11T12:31:25.074Z,49.90
2018-04-11T12:34:26.437Z,44.17
2018-04-11T12:37:28.515Z,88.93
2018-04-11T12:40:30.591Z,44.83
2018-04-11T12:43:32.658Z,41.97
2018-04-11T12:46:34.004Z,34.33
2018-04-11T12:49:35.353Z,38.37
2018-04-11T12:52:37.485Z,37.60
2018-04-11T12:55:38.875Z,34.00
2018-04-11T12:58:40.258Z,39.60
2018-04-11T13:01:41.631Z,43.03
2018-04-11T13:04:43.013Z,30.53
2018-04-11T13:07:44.371Z,31.40
2018-04-11T13:10:45.653Z,30.20
2018-04-11T13:13:47.070Z,33.53
2018-04-11T13:16:48.466Z,33.60
2018-04-11T13:19:49.872Z,26.77
2018-04-11T13:22:51.233Z,57.77
2018-04-11T13:25:52.574Z,33.00
2018-04-11T13:28:53.949Z,31.80
2018-04-11T13:31:55.379Z,27.63
2018-04-11T13:34:57.455Z,25.50
2018-04-11T13:38:00.274Z,30.00
2018-04-11T13:41:03.281Z,25.53
2018-04-11T13:44:04.690Z,30.70
2018-04-11T13:47:07.153Z,31.50
2018-04-11T13:50:09.630Z,29.73
2018-04-11T13:53:12.048Z,29.33
2018-04-11T13:56:16.267Z,30.87
2018-04-11T13:59:18.578Z,23.80
2018-04-11T14:02:20.160Z,27.70
2018-04-11T14:05:21.634Z,25.27
2018-04-11T14:08:23.755Z,24.97
2018-04-11T14:11:25.130Z,33.33
2018-04-11T14:14:26.580Z,20.33
2018-04-11T14:17:27.939Z,20.40
2018-04-11T14:20:29.309Z,16.33
2018-04-11T14:23:30.649Z,9.10
2018-04-11T14:26:32.767Z,16.53
2018-04-11T14:29:34.163Z,18.37
2018-04-11T14:32:35.591Z,15.33
2018-04-11T14:35:37.563Z,20.10
2018-04-11T14:38:38.985Z,14.40
2018-04-11T14:41:40.411Z,18.30
2018-04-11T14:44:41.802Z,14.47
2018-04-11T14:47:43.219Z,10.67
2018-04-11T14:50:45.302Z,15.43
2018-04-11T14:53:47.426Z,14.33
2018-04-11T14:56:48.774Z,8.30
2018-04-11T14:59:50.218Z,8.23
2018-04-11T15:02:52.378Z,11.23
2018-04-11T15:05:53.783Z,7.77
2018-04-11T15:08:55.208Z,5.70
2018-04-11T15:11:56.648Z,6.67
2018-04-11T15:14:58.033Z,4.70
2018-04-11T15:17:59.472Z,3.83
2018-04-11T15:21:00.848Z,2.83
2018-04-11T15:24:02.917Z,2.60
2018-04-11T15:27:04.343Z,2.03
2018-04-11T15:30:06.473Z,2.10
2018-04-11T15:33:07.871Z,3.20
2018-04-11T15:36:09.230Z,2.17
2018-04-11T15:39:11.010Z,4.60
2018-04-11T15:42:12.383Z,1.83
2018-04-11T15:45:13.727Z,3.80
2018-04-11T15:48:15.095Z,7.30
2018-04-11T15:51:16.473Z,4.50
2018-04-11T15:54:17.817Z,1.80
2018-04-11T15:57:19.180Z,1.97
2018-04-11T16:00:20.570Z,2.57
2018-04-11T16:03:21.984Z,3.60
2018-04-11T16:06:23.319Z,2.30
2018-04-11T16:09:24.696Z,2.53
2018-04-11T16:12:26.025Z,2.03
2018-04-11T16:15:27.406Z,1.83
2018-04-11T16:18:28.757Z,3.23
2018-04-11T16:21:30.113Z,1.37
2018-04-11T16:24:31.496Z,1.90
2018-04-11T16:27:32.901Z,1.70
2018-04-11T16:30:34.312Z,3.57
2018-04-11T16:33:35.643Z,1.90
2018-04-11T16:36:37.033Z,1.93
2018-04-11T16:39:39.117Z,6.30
2018-04-11T16:42:40.443Z,2.53
2018-04-11T16:45:41.779Z,3.27
2018-04-11T16:48:43.111Z,2.00
2018-04-11T16:51:44.460Z,2.27
2018-04-11T16:54:45.829Z,5.60
2018-04-11T16:57:47.127Z,2.67
2018-04-11T17:00:48.490Z,2.00
2018-04-11T17:03:49.887Z,2.53
2018-04-11T17:06:51.962Z,2.50
2018-04-11T17:09:53.368Z,2.07
2018-04-11T17:12:54.717Z,2.73
2018-04-11T17:15:56.089Z,2.70
2018-04-11T17:18:57.443Z,2.00
2018-04-11T17:22:18.135Z,2.60
2018-04-11T17:25:38.113Z,2.30
2018-04-11T17:28:57.891Z,2.60
2018-04-11T17:31:59.267Z,7.10
2018-04-11T17:35:00.554Z,3.30
2018-04-11T17:38:01.929Z,6.27
2018-04-11T17:41:03.305Z,7.23
2018-04-11T17:44:04.667Z,2.93
2018-04-11T17:47:05.999Z,7.33
2018-04-11T17:50:07.367Z,2.40
2018-04-11T17:53:08.688Z,2.60
2018-04-11T17:56:10.760Z,2.20
2018-04-11T17:59:12.820Z,2.90
2018-04-11T18:02:14.183Z,2.53
2018-04-11T18:05:15.529Z,1.73
2018-04-11T18:08:16.873Z,7.23
2018-04-11T18:11:18.203Z,6.27
2018-04-11T18:14:20.328Z,2.33
2018-04-11T18:17:21.699Z,5.53
2018-04-11T18:20:23.078Z,2.27
2018-04-11T18:23:24.494Z,11.73
2018-04-11T18:26:25.842Z,3.43
2018-04-11T18:29:27.140Z,5.00
2018-04-11T18:32:28.499Z,2.63
2018-04-11T18:35:29.832Z,6.10
2018-04-11T18:38:31.195Z,2.40
2018-04-11T18:41:39.520Z,6.10
2018-04-11T18:44:40.858Z,9.63
2018-04-11T18:47:42.141Z,9.43
2018-04-11T18:50:43.552Z,5.50
2018-04-11T18:53:44.871Z,13.60
2018-04-11T18:56:46.181Z,2.57
2018-04-11T18:59:47.598Z,6.13
2018-04-11T19:02:48.924Z,8.97
2018-04-11T19:05:50.343Z,8.20
2018-04-11T19:08:51.681Z,6.23
2018-04-11T19:11:53.037Z,9.30
2018-04-11T19:14:54.413Z,6.50
2018-04-11T19:17:55.794Z,3.37
2018-04-11T19:20:57.165Z,3.47
2018-04-11T19:23:58.530Z,6.50
2018-04-11T19:27:01.360Z,4.17
2018-04-11T19:30:03.513Z,9.43
2018-04-11T19:33:04.847Z,8.90
2018-04-11T19:36:06.189Z,9.63
2018-04-11T19:39:07.553Z,9.13
2018-04-11T19:42:08.935Z,5.93
2018-04-11T19:45:10.277Z,4.60
2018-04-11T19:48:12.393Z,4.57
2018-04-11T19:51:13.746Z,6.70
2018-04-11T19:54:15.038Z,3.03
2018-04-11T19:57:16.394Z,6.33
2018-04-11T20:00:17.717Z,4.30
2018-04-11T20:03:19.831Z,5.03
2018-04-11T20:06:21.263Z,3.90
2018-04-11T20:09:23.363Z,5.70
2018-04-11T20:12:24.719Z,4.07
2018-04-11T20:15:26.083Z,4.13
2018-04-11T20:18:28.188Z,4.20
2018-04-11T20:21:30.247Z,9.33
2018-04-11T20:24:32.352Z,6.37
2018-04-11T20:27:33.711Z,6.83
2018-04-11T20:30:35.051Z,5.60
2018-04-11T20:33:37.098Z,88.97
2018-04-11T20:36:39.160Z,40.23
2018-04-11T20:39:40.732Z,7.93
2018-04-11T20:42:42.189Z,11.03
2018-04-11T20:45:43.597Z,4.13
2018-04-11T20:48:45.036Z,4.53
2018-04-11T20:51:46.671Z,4.30
2018-04-11T20:54:47.979Z,5.93
2018-04-11T20:57:49.587Z,4.73
2018-04-11T21:00:50.914Z,6.00
2018-04-11T21:03:52.256Z,8.43
2018-04-11T21:06:53.600Z,5.33
2018-04-11T21:09:57.183Z,4.47
2018-04-11T21:12:59.602Z,5.23
2018-04-11T21:16:01.357Z,9.13
2018-04-11T21:19:03.426Z,12.13
2018-04-11T21:22:04.917Z,4.17
2018-04-11T21:25:06.996Z,5.40
2018-04-11T21:28:10.074Z,10.77
2018-04-11T21:31:11.662Z,8.63
2018-04-11T21:34:13.263Z,7.87
2018-04-11T21:37:14.959Z,5.23
2018-04-11T21:40:16.733Z,6.07
2018-04-11T21:43:18.676Z,5.63
2018-04-11T21:46:20.028Z,15.50
2018-04-11T21:49:21.381Z,10.57
2018-04-11T21:52:22.709Z,7.07
2018-04-11T21:55:24.075Z,9.73
2018-04-11T21:58:25.389Z,9.83
2018-04-11T22:01:33.768Z,8.97
2018-04-11T22:04:35.147Z,11.70
2018-04-11T22:07:36.495Z,11.47
2018-04-11T22:10:37.862Z,12.57
2018-04-11T22:13:39.163Z,12.90
2018-04-11T22:16:40.514Z,15.80
2018-04-11T22:19:41.829Z,19.73
2018-04-11T22:22:43.902Z,18.50
2018-04-11T22:25:45.207Z,16.40
2018-04-11T22:28:46.549Z,17.97
2018-04-11T22:31:47.869Z,21.20
2018-04-11T22:34:49.594Z,22.23
2018-04-11T22:37:50.950Z,26.43
2018-04-11T22:40:53.037Z,26.97
2018-04-11T22:43:54.402Z,20.93
2018-04-11T22:46:56.504Z,29.07
2018-04-11T22:49:57.833Z,34.40
2018-04-11T22:52:59.170Z,26.23
2018-04-11T22:56:00.492Z,26.37
2018-04-11T22:59:01.833Z,28.90
2018-04-11T23:02:03.900Z,28.20
2018-04-11T23:05:05.210Z,27.40
2018-04-11T23:08:06.560Z,33.90
2018-04-11T23:11:08.643Z,30.00
2018-04-11T23:14:10.729Z,35.27
2018-04-11T23:17:12.105Z,34.37
2018-04-11T23:20:13.441Z,41.47
2018-04-11T23:23:15.516Z,39.57
2018-04-11T23:26:17.585Z,43.90
2018-04-11T23:29:19.175Z,42.03
2018-04-11T23:32:21.325Z,42.00
2018-04-11T23:35:23.456Z,43.67
2018-04-11T23:38:25.610Z,45.07
2018-04-11T23:41:26.989Z,50.90
2018-04-11T23:44:28.636Z,49.80
2018-04-11T23:47:30.065Z,45.37
2018-04-11T23:50:31.422Z,49.50
2018-04-11T23:53:32.837Z,49.77
2018-04-11T23:56:34.265Z,49.13
2018-04-11T23:59:35.594Z,50.30
